createdAt,value
2022-09-05T00:02:32.853Z,18.30
2022-09-05T00:06:52.688Z,18.20
2022-09-05T00:11:41.934Z,18.20
2022-09-05T00:15:52.209Z,18.20
2022-09-05T00:24:23.092Z,18.20
2022-09-05T00:25:14.798Z,18.20
2022-09-05T00:31:05.700Z,18.20
2022-09-05T00:34:20.477Z,18.20
2022-09-05T00:38:37.155Z,18.20
2022-09-05T00:42:50.531Z,18.20
2022-09-05T00:47:07.908Z,18.20
2022-09-05T00:51:29.205Z,18.20
2022-09-05T00:55:57.858Z,18.20
2022-09-05T01:00:23.110Z,18.20
2022-09-05T01:04:44.048Z,18.30
2022-09-05T01:09:22.450Z,18.30
2022-09-05T01:13:41.332Z,18.30
2022-09-05T01:18:25.234Z,18.40
2022-09-05T01:22:58.252Z,18.30
2022-09-05T01:28:43.573Z,18.30
2022-09-05T01:32:25.731Z,18.30
2022-09-05T01:36:47.976Z,18.20
2022-09-05T01:41:18.056Z,18.10
2022-09-05T01:45:44.214Z,18.10
2022-09-05T01:50:03.414Z,18.10
2022-09-05T01:54:26.235Z,18.10
2022-09-05T01:58:52.952Z,18.00
2022-09-05T02:03:16.475Z,18.10
2022-09-05T02:07:39.350Z,18.10
2022-09-05T02:11:56.772Z,18.10
2022-09-05T02:16:14.104Z,18.20
2022-09-05T02:20:28.432Z,18.20
2022-09-05T02:24:43.357Z,18.20
2022-09-05T02:28:57.833Z,18.30
2022-09-05T02:33:16.542Z,18.40
2022-09-05T02:37:38.502Z,18.40
2022-09-05T02:45:18.658Z,18.50
2022-09-05T02:46:47.951Z,18.50
2022-09-05T02:57:28.839Z,18.50
2022-09-05T02:57:37.625Z,18.50
2022-09-05T03:00:41.313Z,18.50
2022-09-05T03:04:55.688Z,18.50
2022-09-05T03:09:31.532Z,18.60
2022-09-05T03:14:25.549Z,18.60
2022-09-05T03:19:10.131Z,18.60
2022-09-05T03:23:40.411Z,18.60
2022-09-05T03:28:34.414Z,18.70
2022-09-05T03:33:25.410Z,18.70
2022-09-05T03:38:14.034Z,18.70
2022-09-05T03:42:41.413Z,18.70
2022-09-05T03:47:10.413Z,18.70
2022-09-05T03:57:07.615Z,18.80
2022-09-05T03:57:17.062Z,18.80
2022-09-05T04:01:32.235Z,18.80
2022-09-05T04:08:23.961Z,18.90
2022-09-05T04:10:25.469Z,18.90
2022-09-05T04:14:42.750Z,18.90
2022-09-05T04:18:57.590Z,18.90
2022-09-05T04:23:16.110Z,18.90
2022-09-05T04:27:37.653Z,18.90
2022-09-05T04:32:17.660Z,18.90
2022-09-05T04:36:31.209Z,18.90
2022-09-05T04:40:48.411Z,18.90
2022-09-05T04:45:02.551Z,18.90
2022-09-05T04:49:14.751Z,19.00
2022-09-05T04:53:39.449Z,19.00
2022-09-05T04:57:54.850Z,19.00
2022-09-05T05:06:01.307Z,18.90
2022-09-05T05:06:48.796Z,18.90
2022-09-05T05:16:39.787Z,18.90
2022-09-05T05:17:58.346Z,18.90
2022-09-05T05:20:41.212Z,18.90
2022-09-05T05:24:49.829Z,18.80
2022-09-05T05:29:04.530Z,18.80
2022-09-05T05:33:28.609Z,18.60
2022-09-05T05:37:42.370Z,18.60
2022-09-05T05:41:54.450Z,18.60
2022-09-05T05:46:08.257Z,18.50
2022-09-05T05:50:34.769Z,18.40
2022-09-05T05:54:51.528Z,18.40
2022-09-05T05:59:56.465Z,18.50
2022-09-05T06:04:44.754Z,18.50
2022-09-05T06:14:09.229Z,18.60
2022-09-05T06:15:09.183Z,18.60
2022-09-05T06:22:07.008Z,18.60
2022-09-05T06:25:16.410Z,18.60
2022-09-05T06:29:55.783Z,18.50
2022-09-05T06:34:32.694Z,18.50
2022-09-05T06:39:05.885Z,18.40
2022-09-05T06:43:32.885Z,18.40
2022-09-05T06:47:46.611Z,18.30
2022-09-05T06:52:33.258Z,18.20
2022-09-05T06:57:10.505Z,18.20
2022-09-05T07:01:35.751Z,18.30
2022-09-05T07:06:02.424Z,18.40
2022-09-05T07:10:37.465Z,18.50
2022-09-05T07:14:58.203Z,18.50
2022-09-05T07:19:29.588Z,18.50
2022-09-05T07:24:06.114Z,18.60
2022-09-05T07:28:29.009Z,18.70
2022-09-05T07:32:44.104Z,18.80
2022-09-05T07:37:14.158Z,18.90
2022-09-05T07:41:28.022Z,19.00
2022-09-05T07:45:55.793Z,19.20
2022-09-05T07:55:12.383Z,19.50
2022-09-05T07:57:08.677Z,19.60
2022-09-05T07:59:15.785Z,19.60
2022-09-05T08:03:29.606Z,19.70
2022-09-05T08:07:46.946Z,19.70
2022-09-05T08:12:09.634Z,19.80
2022-09-05T08:16:24.100Z,19.80
2022-09-05T08:20:42.625Z,19.90
2022-09-05T08:25:01.245Z,19.90
2022-09-05T08:29:17.326Z,20.00
2022-09-05T08:33:35.289Z,20.00
2022-09-05T08:37:45.986Z,20.10
2022-09-05T08:42:15.050Z,20.10
2022-09-05T08:46:46.370Z,20.20
2022-09-05T08:51:29.386Z,20.10
2022-09-05T08:55:49.067Z,20.20
2022-09-05T09:00:19.470Z,20.20
2022-09-05T09:05:01.341Z,20.20
2022-09-05T09:09:19.947Z,20.30
2022-09-05T09:13:39.705Z,20.30
2022-09-05T09:17:51.091Z,20.30
2022-09-05T09:22:20.114Z,20.30
2022-09-05T09:26:37.805Z,20.30
2022-09-05T09:31:08.836Z,20.30
2022-09-05T09:35:24.284Z,20.50
2022-09-05T09:39:44.191Z,20.80
2022-09-05T09:44:35.231Z,21.20
2022-09-05T09:49:23.030Z,21.30
2022-09-05T09:53:47.526Z,21.50
2022-09-05T09:58:36.907Z,21.30
2022-09-05T10:06:36.559Z,21.20
2022-09-05T10:10:52.852Z,21.10
2022-09-05T10:13:24.403Z,21.40
2022-09-05T10:18:21.086Z,21.50
2022-09-05T10:22:54.411Z,21.70
2022-09-05T10:27:33.647Z,21.80
2022-09-05T10:33:19.936Z,21.90
2022-09-05T10:36:29.276Z,22.20
2022-09-05T10:41:20.500Z,22.20
2022-09-05T10:45:17.170Z,22.40
2022-09-05T10:49:30.322Z,22.60
2022-09-05T10:53:48.889Z,22.60
2022-09-05T10:58:09.067Z,22.70
2022-09-05T11:02:33.529Z,22.80
2022-09-05T11:07:06.144Z,22.70
2022-09-05T11:11:28.293Z,22.90
2022-09-05T11:16:03.652Z,22.70
2022-09-05T11:20:46.547Z,22.70
2022-09-05T11:25:00.748Z,22.80
2022-09-05T11:29:13.865Z,22.80
2022-09-05T11:39:53.972Z,22.90
2022-09-05T11:40:04.351Z,22.80
2022-09-05T11:48:38.946Z,22.70
2022-09-05T11:53:20.107Z,23.00
2022-09-05T11:57:43.266Z,23.20
2022-09-05T12:02:11.016Z,23.00
2022-09-05T12:07:29.889Z,23.00
2022-09-05T12:11:52.444Z,22.90
2022-09-05T12:16:08.336Z,22.80
2022-09-05T12:20:27.166Z,22.80
2022-09-05T12:25:25.345Z,22.70
2022-09-05T12:29:29.662Z,22.70
2022-09-05T12:36:09.704Z,22.90
2022-09-05T12:42:10.523Z,22.70
2022-09-05T12:44:20.933Z,22.50
2022-09-05T12:47:56.865Z,22.60
2022-09-05T12:52:09.769Z,22.90
2022-09-05T13:00:22.841Z,23.00
2022-09-05T13:03:03.379Z,23.30
2022-09-05T13:06:00.403Z,23.50
2022-09-05T13:12:35.784Z,23.20
2022-09-05T13:15:18.627Z,22.80
2022-09-05T13:19:40.786Z,22.00
2022-09-05T13:24:02.186Z,21.50
2022-09-05T13:28:14.566Z,21.30
2022-09-05T13:38:02.352Z,21.20
2022-09-05T13:38:11.030Z,21.20
2022-09-05T13:41:37.008Z,21.20
2022-09-05T13:46:06.730Z,21.40
2022-09-05T13:50:26.027Z,21.60
2022-09-05T13:54:48.806Z,21.80
2022-09-05T13:59:04.306Z,21.80
2022-09-05T14:03:58.713Z,21.90
2022-09-05T14:08:40.729Z,21.80
2022-09-05T14:13:01.145Z,21.70
2022-09-05T14:17:51.456Z,21.50
2022-09-05T14:22:05.008Z,21.40
2022-09-05T14:26:21.328Z,21.50
2022-09-05T14:33:32.490Z,21.80
2022-09-05T14:37:53.847Z,22.10
2022-09-05T14:40:30.532Z,22.10
2022-09-05T14:45:15.448Z,22.10
2022-09-05T14:49:55.995Z,22.30
2022-09-05T15:02:44.859Z,22.40
2022-09-05T15:03:15.388Z,22.20
2022-09-05T15:07:29.225Z,22.00
2022-09-05T15:12:27.610Z,21.90
2022-09-05T15:16:10.723Z,22.00
2022-09-05T15:20:32.226Z,22.20
2022-09-05T15:24:43.324Z,22.30
2022-09-05T15:29:14.030Z,22.50
2022-09-05T15:33:28.665Z,22.70
2022-09-05T15:37:40.873Z,22.80
2022-09-05T15:41:51.806Z,22.80
2022-09-05T15:46:04.488Z,22.50
2022-09-05T15:50:22.227Z,22.40
2022-09-05T15:54:38.790Z,22.70
2022-09-05T15:58:54.846Z,22.90
2022-09-05T16:04:19.929Z,23.00
2022-09-05T16:10:33.562Z,22.70
2022-09-05T16:12:19.186Z,22.30
2022-09-05T16:23:13.544Z,22.00
2022-09-05T16:23:33.602Z,22.00
2022-09-05T16:25:38.426Z,22.30
2022-09-05T16:29:50.865Z,22.50
2022-09-05T16:34:10.341Z,22.60
2022-09-05T16:38:48.827Z,22.70
2022-09-05T16:42:57.084Z,22.70
2022-09-05T16:47:15.167Z,22.70
2022-09-05T16:51:35.867Z,22.70
2022-09-05T16:55:54.748Z,22.70
2022-09-05T17:00:05.946Z,22.30
2022-09-05T17:04:20.956Z,21.80
2022-09-05T17:09:13.084Z,21.60
2022-09-05T17:18:40.067Z,21.30
2022-09-05T17:26:27.788Z,21.20
2022-09-05T18:01:38.785Z,20.60
2022-09-05T18:06:04.269Z,20.50
2022-09-05T18:10:27.443Z,20.40
2022-09-05T18:14:50.086Z,20.40
2022-09-05T18:20:11.005Z,20.30
2022-09-05T18:24:37.524Z,20.30
2022-09-05T18:38:51.355Z,20.20
2022-09-05T18:43:10.705Z,20.20
2022-09-05T18:47:58.847Z,20.10
2022-09-05T19:06:34.943Z,19.80
2022-09-05T19:10:48.865Z,19.80
2022-09-05T19:15:08.307Z,19.80
2022-09-05T19:19:26.686Z,19.70
2022-09-05T19:23:45.347Z,19.70
2022-09-05T19:31:25.231Z,19.60
2022-09-05T22:57:21.215Z,18.50
2022-09-05T23:01:57.339Z,18.50
2022-09-05T23:17:04.270Z,18.50
2022-09-05T23:46:42.528Z,18.50
